Time;durP1;ratioP1;P1;durP2;ratioP2;P2;SDS_P1;SDS_P2;PMS_P1;PMS_P2;Temp;Humidity;BMP_temperature;BMP_pressure;BME280_temperature;BME280_humidity;BME280_pressure;Samples;Min_cycle;Max_cycle;Signal;HPM_P1;HPM_P2
2022/07/15 00:01:46;;;;;;;2.78;1.40;;;;;;;17.38;58.20;99213.72;5020020;28;20036;-79
2022/07/15 00:04:12;;;;;;;2.75;1.20;;;;;;;17.48;56.05;99205.53;5024227;28;20021;-80
2022/07/15 00:06:37;;;;;;;1.83;1.38;;;;;;;16.69;60.78;99213.97;4991529;28;21331;-80
2022/07/15 00:09:03;;;;;;;2.38;1.40;;;;;;;16.28;60.29;99197.19;5024292;28;20041;-79
2022/07/15 00:11:28;;;;;;;6.65;1.85;;;;;;;17.18;57.52;99204.72;5024873;28;20037;-79
2022/07/15 00:13:54;;;;;;;1.92;1.20;;;;;;;17.88;55.40;99211.38;5026126;28;20358;-79
2022/07/15 00:16:19;;;;;;;1.33;1.23;;;;;;;18.08;55.12;99206.81;5022736;28;20104;-80
2022/07/15 00:18:45;;;;;;;8.32;1.25;;;;;;;18.12;55.18;99205.97;5009018;28;20040;-80
2022/07/15 00:21:10;;;;;;;4.60;1.02;;;;;;;18.00;55.03;99207.47;5018602;28;20028;-80
2022/07/15 00:23:35;;;;;;;3.20;1.45;;;;;;;18.13;55.22;99223.78;5004782;28;20038;-80
2022/07/15 00:26:01;;;;;;;2.83;2.08;;;;;;;18.00;55.09;99194.75;5025877;28;20052;-80
2022/07/15 00:28:28;;;;;;;2.30;1.38;;;;;;;17.94;54.92;99207.53;5022436;28;20033;-80
2022/07/15 00:30:54;;;;;;;3.58;1.25;;;;;;;17.50;58.03;99216.84;5009564;28;20397;-80
2022/07/15 00:33:20;;;;;;;3.20;1.15;;;;;;;17.71;55.68;99216.38;5027012;28;20108;-80
2022/07/15 00:35:45;;;;;;;3.45;1.50;;;;;;;18.02;55.58;99216.09;4993591;28;20033;-79
2022/07/15 00:38:11;;;;;;;2.58;1.23;;;;;;;18.08;55.24;99201.44;5003863;28;20481;-80
2022/07/15 00:40:45;;;;;;;2.95;1.27;;;;;;;18.09;54.96;99197.63;5020940;28;20044;-79
2022/07/15 00:43:11;;;;;;;1.52;0.95;;;;;;;18.23;55.08;99212.03;5024162;28;20029;-79
2022/07/15 00:45:36;;;;;;;1.85;1.33;;;;;;;18.14;55.00;99200.25;5019990;28;20048;-79
2022/07/15 00:48:02;;;;;;;1.38;0.88;;;;;;;18.20;54.98;99218.81;5021466;28;20477;-79
2022/07/15 00:50:30;;;;;;;3.90;1.60;;;;;;;18.24;54.96;99205.56;5018360;28;20129;-79
2022/07/15 00:53:16;;;;;;;2.50;1.17;;;;;;;18.18;54.96;99204.00;5023231;28;20049;-80
2022/07/15 00:55:45;;;;;;;5.22;1.38;;;;;;;17.60;57.59;99222.19;5022480;28;20067;-80
2022/07/15 00:58:21;;;;;;;3.75;1.23;;;;;;;17.44;56.69;99197.22;5021542;28;20053;-80
2022/07/15 01:00:49;;;;;;;2.67;1.40;;;;;;;17.38;59.56;99202.94;5022221;28;20091;-79
2022/07/15 01:03:17;;;;;;;1.60;1.40;;;;;;;17.51;57.45;99221.19;5025530;28;20034;-80
2022/07/15 01:05:44;;;;;;;3.90;1.67;;;;;;;16.64;61.37;99211.31;5023039;28;20032;-80
2022/07/15 01:08:10;;;;;;;4.50;1.67;;;;;;;15.81;63.91;99208.41;5021311;28;20037;-80
2022/07/15 01:10:36;;;;;;;5.25;1.40;;;;;;;15.53;64.58;99204.41;5020154;28;20409;-80
2022/07/15 01:13:02;;;;;;;2.03;1.67;;;;;;;15.14;65.87;99203.34;5023836;28;20029;-79
2022/07/15 01:15:30;;;;;;;5.38;1.42;;;;;;;15.77;61.63;99192.00;5020756;28;20045;-80
2022/07/15 01:17:56;;;;;;;3.63;2.03;;;;;;;16.05;61.10;99211.31;5024910;28;20470;-80
2022/07/15 01:20:22;;;;;;;1.48;1.38;;;;;;;15.70;63.14;99220.28;5021451;28;20036;-80
2022/07/15 01:22:47;;;;;;;2.13;1.25;;;;;;;15.83;62.11;99206.25;5002030;28;20490;-79
2022/07/15 01:25:14;;;;;;;4.28;1.50;;;;;;;15.99;61.67;99223.19;5022872;28;20121;-80
2022/07/15 01:27:41;;;;;;;4.07;1.20;;;;;;;16.86;58.25;99219.81;5007844;28;20423;-80
2022/07/15 01:30:07;;;;;;;3.08;1.40;;;;;;;16.69;58.67;99209.38;5007693;28;20472;-80
2022/07/15 01:32:33;;;;;;;4.57;1.42;;;;;;;16.25;60.87;99225.47;5025597;28;20026;-80
2022/07/15 01:34:59;;;;;;;3.60;1.80;;;;;;;16.23;60.94;99229.53;5024561;28;20075;-80
2022/07/15 01:37:24;;;;;;;1.33;1.20;;;;;;;15.17;63.50;99226.19;5016154;28;20044;-79
2022/07/15 01:39:49;;;;;;;1.50;1.40;;;;;;;15.02;63.99;99221.63;5006869;28;20029;-80
2022/07/15 01:42:15;;;;;;;2.38;1.23;;;;;;;16.39;59.33;99229.19;5021798;28;20033;-80
2022/07/15 01:44:40;;;;;;;2.75;1.13;;;;;;;16.90;57.80;99228.94;5024301;28;20029;-80
2022/07/15 01:47:06;;;;;;;2.65;1.45;;;;;;;17.23;56.88;99231.66;5005756;28;20124;-79
2022/07/15 01:49:31;;;;;;;1.38;1.27;;;;;;;16.75;58.56;99218.25;5022040;28;20125;-80
2022/07/15 01:51:58;;;;;;;1.65;1.45;;;;;;;15.63;62.56;99222.44;5023691;28;20029;-80
2022/07/15 01:54:26;;;;;;;1.88;1.52;;;;;;;15.80;62.71;99238.28;5027593;28;20532;-80
2022/07/15 01:56:52;;;;;;;3.03;1.48;;;;;;;15.34;64.41;99237.50;5022479;28;20033;-79
2022/07/15 01:59:18;;;;;;;3.25;2.10;;;;;;;15.17;65.43;99235.09;5020761;28;20025;-80
2022/07/15 02:01:44;;;;;;;4.68;1.75;;;;;;;15.02;65.53;99227.81;5020359;28;20394;-80
2022/07/15 02:04:12;;;;;;;4.05;1.30;;;;;;;15.50;63.07;99244.53;5022283;28;20124;-79
2022/07/15 02:06:39;;;;;;;3.58;1.58;;;;;;;16.32;59.91;99231.38;5022555;28;20129;-80
2022/07/15 02:09:04;;;;;;;5.40;1.38;;;;;;;16.79;58.70;99241.69;5022414;28;20033;-79
2022/07/15 02:11:30;;;;;;;3.75;1.35;;;;;;;16.21;61.82;99245.16;5006562;28;20075;-79
2022/07/15 02:13:58;;;;;;;2.13;1.70;;;;;;;15.97;62.38;99238.75;5021724;28;20496;-79
2022/07/15 02:16:24;;;;;;;2.15;1.90;;;;;;;15.26;65.49;99224.59;5017202;28;20025;-79
2022/07/15 02:18:50;;;;;;;1.95;1.15;;;;;;;15.57;62.57;99229.69;5018083;28;20025;-79
2022/07/15 02:21:15;;;;;;;2.38;1.15;;;;;;;16.32;60.61;99241.34;5021404;28;20037;-80
2022/07/15 02:23:41;;;;;;;2.53;1.60;;;;;;;16.90;58.86;99245.13;5022206;28;20128;-79
2022/07/15 02:26:06;;;;;;;1.13;1.02;;;;;;;17.21;57.38;99222.25;5020554;28;20029;-80
2022/07/15 02:28:32;;;;;;;2.30;1.40;;;;;;;17.35;57.43;99238.56;5023052;28;20542;-80
2022/07/15 02:30:57;;;;;;;2.67;1.15;;;;;;;17.50;57.49;99244.69;5019543;28;21462;-80
2022/07/15 02:33:23;;;;;;;1.48;1.00;;;;;;;17.45;56.88;99247.38;5026939;28;20094;-80
2022/07/15 02:35:49;;;;;;;3.75;2.22;;;;;;;17.47;57.04;99252.53;5013428;28;20496;-80
2022/07/15 02:38:14;;;;;;;4.13;1.55;;;;;;;17.29;59.17;99250.50;5022169;28;20092;-80
2022/07/15 02:40:41;;;;;;;5.72;1.75;;;;;;;17.01;58.29;99246.66;5023122;28;20037;-80
2022/07/15 02:43:06;;;;;;;2.00;1.05;;;;;;;16.74;61.56;99252.50;5006680;28;20037;-80
2022/07/15 02:45:35;;;;;;;4.53;1.45;;;;;;;16.47;60.98;99247.47;5024111;28;20481;-79
2022/07/15 02:48:00;;;;;;;6.72;1.65;;;;;;;16.71;61.08;99254.94;5020271;28;20029;-80
2022/07/15 02:50:26;;;;;;;1.48;1.20;;;;;;;17.04;58.34;99243.41;5003196;28;20083;-79
2022/07/15 02:52:51;;;;;;;1.70;1.15;;;;;;;16.83;59.20;99256.22;5022253;28;21452;-79
2022/07/15 02:55:18;;;;;;;1.52;1.38;;;;;;;17.17;57.83;99259.75;5025619;28;20378;-80
2022/07/15 02:57:43;;;;;;;1.63;1.17;;;;;;;17.20;57.86;99251.13;5019055;28;21243;-79
2022/07/15 03:00:12;;;;;;;1.73;1.15;;;;;;;17.19;57.87;99249.50;5021414;28;20029;-80
2022/07/15 03:02:38;;;;;;;2.80;1.80;;;;;;;17.07;59.58;99243.66;5005881;28;20038;-80
2022/07/15 03:05:05;;;;;;;2.53;1.23;;;;;;;16.73;59.53;99263.56;5020865;28;20029;-80
2022/07/15 03:07:30;;;;;;;2.88;1.40;;;;;;;16.59;60.69;99260.66;5016246;28;20038;-80
2022/07/15 03:09:56;;;;;;;3.78;1.70;;;;;;;16.78;60.16;99266.22;5018789;28;20413;-80
2022/07/15 03:12:22;;;;;;;3.20;1.50;;;;;;;16.75;59.94;99270.28;5022706;28;20025;-80
2022/07/15 03:14:47;;;;;;;1.80;1.48;;;;;;;16.30;62.59;99262.38;5007213;28;20167;-79
2022/07/15 03:17:13;;;;;;;2.55;1.50;;;;;;;16.24;61.08;99250.00;5020942;28;20033;-80
2022/07/15 03:19:39;;;;;;;1.88;1.42;;;;;;;16.29;61.41;99258.06;5006006;28;20467;-80
2022/07/15 03:22:05;;;;;;;1.35;1.20;;;;;;;16.57;60.71;99273.63;5021404;28;20025;-79
2022/07/15 03:24:30;;;;;;;2.22;1.33;;;;;;;17.22;58.70;99278.63;5021700;28;20515;-80
2022/07/15 03:26:56;;;;;;;3.35;1.45;;;;;;;17.24;58.17;99254.84;5020080;28;20095;-80
2022/07/15 03:29:21;;;;;;;2.10;1.05;;;;;;;17.29;57.81;99272.09;5020120;28;20033;-80
2022/07/15 03:31:47;;;;;;;3.92;1.60;;;;;;;17.13;59.35;99268.69;5021794;28;20362;-80
2022/07/15 03:34:12;;;;;;;1.83;1.65;;;;;;;17.19;58.25;99272.97;5010321;28;20037;-80
2022/07/15 03:36:38;;;;;;;4.85;1.33;;;;;;;17.39;58.50;99282.78;5006918;28;20088;-79
2022/07/15 03:39:07;;;;;;;2.92;1.50;;;;;;;17.02;58.50;99277.94;5028063;28;20489;-80
2022/07/15 03:41:33;;;;;;;3.80;1.40;;;;;;;17.21;58.31;99282.38;5026169;28;20390;-80
2022/07/15 03:44:00;;;;;;;2.50;1.70;;;;;;;17.36;57.91;99281.47;5025400;28;20477;-79
2022/07/15 03:46:26;;;;;;;4.40;1.70;;;;;;;16.90;60.97;99280.19;5023309;28;20029;-80
2022/07/15 03:48:52;;;;;;;2.53;1.70;;;;;;;17.17;58.52;99284.03;5023928;28;20037;-79
2022/07/15 03:51:18;;;;;;;1.67;1.50;;;;;;;17.49;57.70;99288.94;4992970;28;20166;-80
2022/07/15 03:53:43;;;;;;;5.35;1.67;;;;;;;17.45;58.05;99287.88;5024089;28;20036;-80
2022/07/15 03:56:09;;;;;;;1.30;1.13;;;;;;;17.37;57.97;99295.75;5022451;28;20370;-79
2022/07/15 03:58:34;;;;;;;4.60;1.60;;;;;;;17.02;59.22;99272.53;5018506;28;20103;-79
2022/07/15 04:01:00;;;;;;;3.83;1.30;;;;;;;17.07;59.00;99288.69;5022318;28;20039;-79
2022/07/15 04:03:25;;;;;;;4.32;1.35;;;;;;;17.08;60.40;99282.22;5023424;28;20123;-80
2022/07/15 04:05:51;;;;;;;1.83;1.30;;;;;;;17.07;59.49;99303.00;5026061;28;20124;-79
2022/07/15 04:08:16;;;;;;;6.28;1.70;;;;;;;16.39;61.95;99293.88;5027135;28;20058;-79
2022/07/15 04:10:42;;;;;;;1.98;1.60;;;;;;;16.72;61.34;99302.38;5025410;28;20029;-79
2022/07/15 04:13:07;;;;;;;1.95;1.45;;;;;;;16.90;60.19;99304.44;5023800;28;20120;-80
2022/07/15 04:15:33;;;;;;;3.30;1.50;;;;;;;17.14;58.86;99291.91;5025278;28;20034;-79
2022/07/15 04:17:59;;;;;;;4.18;1.70;;;;;;;17.42;58.67;99310.03;4985546;28;20045;-80
2022/07/15 04:20:25;;;;;;;1.75;1.35;;;;;;;17.44;58.01;99315.16;5027802;28;20385;-79
2022/07/15 04:22:50;;;;;;;4.75;1.98;;;;;;;17.54;58.03;99298.91;5027657;28;20037;-79
2022/07/15 04:25:19;;;;;;;4.57;1.75;;;;;;;17.10;62.31;99313.22;5023422;28;20103;-79
2022/07/15 04:27:47;;;;;;;3.55;1.50;;;;;;;17.48;58.56;99303.50;5025679;28;20025;-80
2022/07/15 04:30:13;;;;;;;3.47;1.85;;;;;;;17.46;58.81;99310.28;5022791;28;20036;-80
2022/07/15 04:32:39;;;;;;;4.25;1.70;;;;;;;17.29;61.31;99321.47;5024602;28;20033;-79
2022/07/15 04:35:05;;;;;;;4.22;1.40;;;;;;;17.54;59.15;99310.50;5028540;28;20033;-80
2022/07/15 04:37:31;;;;;;;3.42;2.25;;;;;;;17.74;58.21;99317.63;5009707;28;20034;-80
2022/07/15 04:39:56;;;;;;;2.60;1.70;;;;;;;17.47;59.67;99306.50;5031320;28;20025;-80
2022/07/15 04:42:22;;;;;;;2.83;1.45;;;;;;;17.51;58.76;99292.19;5028367;28;20025;-80
2022/07/15 04:44:48;;;;;;;2.25;1.35;;;;;;;17.75;58.15;99313.84;5020056;28;20105;-80
2022/07/15 04:47:14;;;;;;;4.55;1.77;;;;;;;17.85;57.76;99313.75;5026700;28;20129;-80
2022/07/15 04:52:24;;;;;;;3.00;1.70;;;;;;;17.85;57.63;99317.25;5027802;28;20044;-79
2022/07/15 04:54:50;;;;;;;5.15;1.75;;;;;;;17.86;57.69;99324.28;5026846;28;20033;-79
2022/07/15 04:57:16;;;;;;;3.33;1.73;;;;;;;17.83;58.34;99322.16;5027993;28;20029;-80
2022/07/15 04:59:41;;;;;;;8.93;2.10;;;;;;;17.66;58.31;99308.25;5043658;28;20044;-79
2022/07/15 05:02:06;;;;;;;4.38;2.13;;;;;;;17.58;59.31;99325.03;5006460;28;20033;-81
2022/07/15 05:04:32;;;;;;;1.98;1.20;;;;;;;17.57;58.62;99318.03;5007794;28;20493;-80
2022/07/15 05:06:57;;;;;;;6.20;2.28;;;;;;;17.48;59.56;99324.28;5009155;28;20425;-80
2022/07/15 05:09:23;;;;;;;3.10;1.77;;;;;;;17.36;59.87;99332.75;5025091;28;20028;-80
2022/07/15 05:11:48;;;;;;;4.90;2.13;;;;;;;17.21;59.88;99330.16;5022411;28;20036;-80
2022/07/15 05:14:13;;;;;;;5.57;2.28;;;;;;;17.12;60.25;99331.84;5007533;28;20036;-80
2022/07/15 05:16:39;;;;;;;2.15;1.70;;;;;;;17.65;58.81;99327.41;5021960;28;20088;-80
2022/07/15 05:19:04;;;;;;;2.10;1.52;;;;;;;17.34;60.03;99345.72;5037037;28;20030;-80
2022/07/15 05:21:30;;;;;;;4.40;2.30;;;;;;;17.48;59.97;99337.78;5005229;28;20083;-80
2022/07/15 05:23:55;;;;;;;7.88;2.58;;;;;;;17.00;62.31;99324.06;5018873;28;20032;-79
2022/07/15 05:26:21;;;;;;;6.05;2.30;;;;;;;17.60;59.92;99360.69;5023900;28;20424;-79
2022/07/15 05:28:46;;;;;;;5.13;1.85;;;;;;;17.47;60.04;99346.97;5026444;28;20038;-79
2022/07/15 05:31:12;;;;;;;4.82;1.90;;;;;;;17.83;59.07;99357.25;5021530;28;20039;-79
2022/07/15 05:33:37;;;;;;;5.03;2.53;;;;;;;17.41;61.55;99348.91;5023746;28;20143;-79
2022/07/15 05:36:04;;;;;;;5.95;2.70;;;;;;;17.35;60.83;99360.00;5021622;28;20029;-79
2022/07/15 05:38:29;;;;;;;4.35;1.70;;;;;;;17.65;59.92;99366.03;5026705;28;20527;-79
2022/07/15 05:40:55;;;;;;;3.13;1.90;;;;;;;17.63;59.54;99348.50;5020060;28;20026;-79
2022/07/15 05:43:20;;;;;;;4.85;2.00;;;;;;;18.06;58.88;99363.81;5021760;28;20120;-80
2022/07/15 05:45:46;;;;;;;8.70;2.17;;;;;;;17.66;59.60;99356.84;5020242;28;20107;-79
2022/07/15 05:48:11;;;;;;;5.78;2.17;;;;;;;17.72;59.36;99363.00;5023132;28;20060;-79
2022/07/15 05:50:37;;;;;;;9.60;2.08;;;;;;;18.00;59.53;99351.41;5003042;28;20392;-80
2022/07/15 05:53:02;;;;;;;6.40;2.20;;;;;;;18.47;57.80;99385.84;5003998;28;20036;-80
2022/07/15 05:55:29;;;;;;;5.65;1.83;;;;;;;18.31;58.09;99387.88;5022771;28;20052;-80
2022/07/15 05:57:54;;;;;;;6.40;1.90;;;;;;;18.19;59.51;99383.94;5021440;28;20072;-80
2022/07/15 06:00:20;;;;;;;6.40;1.70;;;;;;;18.21;59.40;99376.38;5018564;28;20056;-79
2022/07/15 06:02:45;;;;;;;7.68;2.45;;;;;;;18.28;58.37;99390.34;5024051;28;20087;-79
2022/07/15 06:05:11;;;;;;;4.15;2.15;;;;;;;18.50;57.43;99371.78;5018482;28;20527;-80
2022/07/15 06:07:37;;;;;;;9.73;2.05;;;;;;;17.94;59.00;99385.78;5023923;28;20017;-80
2022/07/15 06:10:04;;;;;;;5.30;1.90;;;;;;;18.28;58.04;99376.84;5023544;28;20037;-80
2022/07/15 06:12:30;;;;;;;7.15;1.80;;;;;;;18.09;59.22;99382.13;5021472;28;20484;-80
2022/07/15 06:14:55;;;;;;;3.92;1.77;;;;;;;18.07;58.64;99391.63;5025110;28;20029;-80
2022/07/15 06:17:21;;;;;;;7.95;2.00;;;;;;;18.06;58.59;99398.94;5020178;28;20033;-80
2022/07/15 06:19:46;;;;;;;5.55;1.90;;;;;;;18.09;58.33;99403.75;5022688;28;20060;-80
2022/07/15 06:22:12;;;;;;;4.28;1.98;;;;;;;18.18;58.05;99393.94;5020578;28;20059;-80
2022/07/15 06:24:38;;;;;;;3.63;2.00;;;;;;;18.43;57.03;99390.19;5000888;28;20501;-80
2022/07/15 06:27:03;;;;;;;6.65;2.03;;;;;;;18.82;56.27;99404.41;5026381;28;20045;-80
2022/07/15 06:29:29;;;;;;;4.05;2.70;;;;;;;18.35;56.55;99402.44;5003687;28;20033;-80
2022/07/15 06:31:54;;;;;;;6.68;2.33;;;;;;;17.59;58.70;99396.03;5008193;28;20393;-79
2022/07/15 06:34:20;;;;;;;8.52;2.45;;;;;;;18.02;57.50;99389.75;5018331;28;20018;-80
2022/07/15 06:36:45;;;;;;;8.10;2.13;;;;;;;18.17;56.69;99400.47;5009620;28;20079;-80
2022/07/15 06:39:11;;;;;;;5.60;2.17;;;;;;;17.99;57.92;99406.56;5020820;28;20030;-79
2022/07/15 06:41:36;;;;;;;4.50;2.08;;;;;;;18.07;56.81;99399.72;5027947;28;20540;-80
2022/07/15 06:44:02;;;;;;;4.20;1.85;;;;;;;17.87;54.38;99406.09;5024663;28;20033;-80
2022/07/15 06:46:27;;;;;;;7.35;2.20;;;;;;;18.45;55.75;99406.97;5021362;28;20148;-80
2022/07/15 06:48:53;;;;;;;9.85;2.10;;;;;;;18.09;55.74;99400.22;5005339;28;20397;-80
2022/07/15 06:51:18;;;;;;;5.07;2.05;;;;;;;18.62;54.45;99408.13;5024800;28;20037;-79
2022/07/15 06:53:44;;;;;;;6.35;2.05;;;;;;;18.60;54.65;99404.09;5005485;28;20029;-79
2022/07/15 06:56:10;;;;;;;5.18;1.98;;;;;;;18.54;55.06;99394.44;5006212;28;20048;-80
2022/07/15 06:58:35;;;;;;;4.07;1.75;;;;;;;18.64;54.49;99419.47;5036538;28;20095;-79
2022/07/15 07:01:01;;;;;;;3.85;1.67;;;;;;;18.63;54.88;99400.84;5023560;28;20034;-80
2022/07/15 07:03:26;;;;;;;6.88;1.83;;;;;;;18.42;54.90;99411.00;5024688;28;20478;-80
2022/07/15 07:05:52;;;;;;;3.75;1.67;;;;;;;18.72;54.72;99404.50;5036188;28;20041;-80
2022/07/15 07:08:17;;;;;;;6.13;1.80;;;;;;;18.70;54.50;99390.47;5022224;28;20033;-79
2022/07/15 07:10:43;;;;;;;4.40;1.67;;;;;;;18.84;54.56;99407.63;5031051;28;20037;-80
2022/07/15 07:13:09;;;;;;;6.63;1.75;;;;;;;18.79;54.66;99404.97;5025114;28;20029;-79
2022/07/15 07:15:35;;;;;;;6.28;1.95;;;;;;;19.04;53.91;99391.16;5010377;28;20060;-79
2022/07/15 07:18:01;;;;;;;3.38;1.60;;;;;;;18.43;54.93;99387.50;5010513;28;20025;-79
2022/07/15 07:20:26;;;;;;;5.10;2.05;;;;;;;19.13;54.09;99394.78;5010908;28;20057;-79
2022/07/15 07:22:52;;;;;;;5.55;2.17;;;;;;;19.13;54.09;99391.31;5029968;28;20034;-79
2022/07/15 07:25:17;;;;;;;6.05;2.53;;;;;;;19.10;52.96;99379.16;5015103;28;20029;-79
2022/07/15 07:27:42;;;;;;;4.97;1.67;;;;;;;19.17;53.98;99395.84;5029296;28;20026;-79
2022/07/15 07:30:08;;;;;;;4.10;1.65;;;;;;;19.01;53.99;99397.13;5022568;28;20061;-79
2022/07/15 07:32:34;;;;;;;4.85;2.05;;;;;;;19.07;52.31;99381.63;5026015;28;20112;-80
2022/07/15 07:34:59;;;;;;;7.75;2.00;;;;;;;19.28;53.39;99381.06;5025891;28;20025;-79
2022/07/15 07:37:26;;;;;;;4.05;1.90;;;;;;;19.21;53.44;99387.94;5006616;28;20026;-79
2022/07/15 07:39:52;;;;;;;6.00;1.55;;;;;;;19.49;52.98;99388.91;5027305;28;20025;-79
2022/07/15 07:42:18;;;;;;;6.50;1.80;;;;;;;19.38;53.44;99396.38;5026358;28;20040;-79
2022/07/15 07:44:43;;;;;;;8.20;1.80;;;;;;;19.71;52.76;99394.53;5026741;28;20116;-79
2022/07/15 07:47:08;;;;;;;3.25;1.63;;;;;;;19.28;52.99;99396.50;5008930;28;20053;-79
2022/07/15 07:49:34;;;;;;;4.55;1.42;;;;;;;19.61;52.66;99383.88;5005915;28;20053;-79
2022/07/15 07:51:59;;;;;;;7.25;1.80;;;;;;;19.78;52.64;99389.56;5015300;28;20087;-79
2022/07/15 07:54:25;;;;;;;3.45;1.60;;;;;;;19.33;52.05;99378.28;5027630;28;20492;-79
2022/07/15 07:56:51;;;;;;;5.13;1.60;;;;;;;19.78;51.98;99373.31;5014339;28;20048;-79
2022/07/15 07:59:16;;;;;;;6.32;2.08;;;;;;;19.60;52.53;99393.91;5027715;28;20029;-79
2022/07/15 08:01:42;;;;;;;4.03;1.52;;;;;;;19.35;53.13;99367.22;5024409;28;20048;-79
2022/07/15 08:04:07;;;;;;;6.25;1.65;;;;;;;19.80;52.25;99380.06;5024288;28;20477;-79
2022/07/15 08:06:34;;;;;;;4.80;1.42;;;;;;;19.64;51.94;99391.41;5024404;28;20397;-79
2022/07/15 08:09:00;;;;;;;4.45;1.67;;;;;;;19.72;52.38;99385.34;5023002;28;20486;-79
2022/07/15 08:11:25;;;;;;;3.35;1.33;;;;;;;19.76;51.33;99391.78;5027270;28;20162;-79
2022/07/15 08:13:50;;;;;;;4.72;1.55;;;;;;;20.14;51.38;99393.28;5028559;28;20086;-80
2022/07/15 08:16:16;;;;;;;6.65;1.38;;;;;;;20.09;51.37;99380.63;5024446;28;20079;-79
2022/07/15 08:18:46;;;;;;;1.85;0.95;;;;;;;20.04;51.00;99396.19;5025667;28;20033;-79
2022/07/15 08:21:11;;;;;;;3.60;1.83;;;;;;;20.32;50.73;99397.88;5023800;28;20033;-79
2022/07/15 08:23:37;;;;;;;4.65;1.40;;;;;;;19.93;50.81;99390.13;5026822;28;20056;-79
2022/07/15 08:26:04;;;;;;;6.10;1.67;;;;;;;19.99;51.10;99391.66;4995612;28;20048;-79
2022/07/15 08:28:30;;;;;;;3.95;1.35;;;;;;;20.49;50.33;99389.16;5027039;28;20032;-79
2022/07/15 08:30:55;;;;;;;6.22;2.05;;;;;;;19.95;49.99;99389.81;5028458;28;20026;-79
2022/07/15 08:33:21;;;;;;;7.55;1.73;;;;;;;20.28;50.41;99407.72;5010890;28;20437;-79
2022/07/15 08:35:47;;;;;;;3.90;1.23;;;;;;;20.23;50.41;99391.53;5023319;28;20053;-79
2022/07/15 08:38:13;;;;;;;6.00;1.90;;;;;;;20.25;49.80;99405.59;5028284;28;20021;-79
2022/07/15 08:40:39;;;;;;;5.78;1.80;;;;;;;20.42;49.54;99389.56;5012930;28;20040;-79
2022/07/15 08:43:10;;;;;;;3.25;1.10;;;;;;;20.65;50.05;99410.28;5029408;28;20505;-79
2022/07/15 08:45:37;;;;;;;4.63;1.33;;;;;;;20.77;49.81;99407.09;5025567;28;20029;-79
2022/07/15 08:48:05;;;;;;;6.55;1.92;;;;;;;20.71;49.72;99397.41;5027558;28;20375;-79
2022/07/15 08:50:31;;;;;;;4.07;1.70;;;;;;;20.92;48.68;99410.28;5025314;28;20029;-79
2022/07/15 08:52:57;;;;;;;4.57;1.60;;;;;;;20.98;48.99;99407.47;5024636;28;20383;-79
2022/07/15 08:55:23;;;;;;;8.55;1.70;;;;;;;20.86;49.39;99400.66;5026951;28;20021;-80
2022/07/15 08:57:52;;;;;;;4.88;1.50;;;;;;;20.83;49.29;99406.69;5021241;28;20071;-79
2022/07/15 09:00:18;;;;;;;7.22;1.90;;;;;;;20.61;49.51;99411.19;5024656;28;20033;-79
2022/07/15 09:02:45;;;;;;;7.07;1.73;;;;;;;20.83;48.14;99390.41;5009476;28;20060;-79
2022/07/15 09:05:27;;;;;;;2.95;1.13;;;;;;;21.13;48.32;99418.88;5026854;28;20373;-80
2022/07/15 09:08:10;;;;;;;4.45;1.48;;;;;;;21.00;48.68;99414.22;5024770;28;20497;-79
2022/07/15 09:10:56;;;;;;;7.03;1.13;;;;;;;20.95;48.21;99417.03;5027352;28;20025;-80
2022/07/15 09:13:24;;;;;;;;;;;;;;;20.92;48.09;99409.50;5024404;28;20033;-79
2022/07/15 09:15:50;;;;;;;3.03;1.40;;;;;;;20.90;48.27;99409.78;5018850;28;19921;-79
2022/07/15 09:18:19;;;;;;;5.65;1.48;;;;;;;20.92;48.73;99404.84;5020206;28;20493;-79
2022/07/15 09:20:45;;;;;;;4.55;1.63;;;;;;;20.76;48.32;99402.75;5010397;28;20025;-79
2022/07/15 09:23:17;;;;;;;5.82;1.50;;;;;;;20.50;48.96;99421.44;5015920;28;20026;-80
2022/07/15 09:25:43;;;;;;;4.40;1.73;;;;;;;20.54;48.87;99406.16;5041265;28;20029;-79
2022/07/15 09:28:09;;;;;;;4.75;1.27;;;;;;;20.43;49.17;99407.44;5040787;28;20484;-79
2022/07/15 09:33:43;;;;;;;3.83;1.48;;;;;;;20.29;48.33;99401.19;5038502;28;20089;-79
2022/07/15 09:36:13;;;;;;;3.05;1.48;;;;;;;20.39;48.81;99408.34;5043589;28;20025;-79
2022/07/15 09:38:42;;;;;;;5.35;1.63;;;;;;;20.20;49.37;99413.81;5038666;28;20048;-79
2022/07/15 09:41:30;;;;;;;5.15;1.17;;;;;;;20.34;48.30;99408.44;5038686;28;20025;-79
2022/07/15 09:43:59;;;;;;;4.13;1.70;;;;;;;20.26;48.35;99412.66;5029072;28;20497;-79
2022/07/15 09:46:41;;;;;;;6.18;1.45;;;;;;;20.27;48.46;99397.97;5040140;28;20063;-81
2022/07/15 09:49:07;;;;;;;3.10;1.27;;;;;;;20.01;49.51;99413.03;5041503;28;20044;-80
2022/07/15 09:51:43;;;;;;;8.45;1.65;;;;;;;19.36;49.26;99391.28;5019717;28;20122;-79
2022/07/15 09:54:12;;;;;;;3.33;1.15;;;;;;;19.99;49.21;99407.09;5035285;28;20029;-79
2022/07/15 09:56:38;;;;;;;5.07;2.03;;;;;;;20.08;49.22;99425.09;5022564;28;20231;-79
2022/07/15 09:59:04;;;;;;;5.53;1.80;;;;;;;20.54;48.53;99424.34;5020404;28;21457;-79
2022/07/15 10:01:30;;;;;;;3.22;1.48;;;;;;;19.97;49.52;99418.25;5012290;28;20503;-79
2022/07/15 10:03:56;;;;;;;5.32;1.10;;;;;;;19.10;51.24;99421.63;5017092;28;20171;-79
2022/07/15 10:06:26;;;;;;;2.90;1.27;;;;;;;20.54;48.44;99425.16;5016926;28;20048;-79
2022/07/15 10:08:53;;;;;;;4.68;1.60;;;;;;;20.42;48.33;99400.41;5016581;28;20045;-79
2022/07/15 10:11:20;;;;;;;4.47;1.50;;;;;;;20.69;47.71;99418.63;5013145;28;20033;-79
2022/07/15 10:14:30;;;;;;;4.07;1.15;;;;;;;20.35;48.24;99410.06;5010074;28;20017;-81
2022/07/15 10:17:07;;;;;;;4.00;1.52;;;;;;;20.42;47.37;99419.38;5020387;28;20022;-82
2022/07/15 10:19:51;;;;;;;5.10;1.30;;;;;;;20.91;47.23;99421.44;5020034;28;20036;-81
2022/07/15 10:22:26;;;;;;;2.30;0.95;;;;;;;20.97;46.51;99416.75;5025580;28;20119;-81
2022/07/15 10:25:00;;;;;;;2.78;1.25;;;;;;;21.14;45.99;99422.38;5026992;28;20377;-81
2022/07/15 10:27:37;;;;;;;3.90;0.98;;;;;;;20.77;45.19;99413.31;5026673;28;20496;-81
2022/07/15 10:30:06;;;;;;;4.40;0.98;;;;;;;20.34;47.15;99401.09;5027152;28;20049;-81
2022/07/15 10:33:15;;;;;;;7.28;1.42;;;;;;;21.15;46.02;99413.13;5022706;28;20127;-81
2022/07/15 10:35:44;;;;;;;3.67;1.10;;;;;;;21.20;46.06;99411.13;5033179;28;20036;-81
2022/07/15 10:38:31;;;;;;;4.53;1.10;;;;;;;21.34;46.23;99405.66;5023508;28;20100;-81
2022/07/15 10:40:58;;;;;;;4.05;1.17;;;;;;;21.44;45.96;99406.25;5027007;28;20068;-81
2022/07/15 10:43:50;;;;;;;4.22;1.40;;;;;;;21.44;46.68;99408.16;5030034;28;20525;-81
2022/07/15 10:46:21;;;;;;;2.92;1.48;;;;;;;21.53;45.87;99400.88;5021819;28;20112;-81
2022/07/15 10:49:12;;;;;;;4.38;1.25;;;;;;;21.58;45.92;99409.72;5025146;28;20041;-81
2022/07/15 10:51:37;;;;;;;3.80;1.55;;;;;;;21.65;45.69;99401.13;5024751;28;20033;-81
2022/07/15 10:54:07;;;;;;;3.38;1.73;;;;;;;21.58;45.86;99401.56;5023580;28;20029;-80
2022/07/15 10:56:37;;;;;;;4.50;1.15;;;;;;;21.84;45.30;99393.63;5022255;28;20066;-81
2022/07/15 10:59:19;;;;;;;4.72;1.20;;;;;;;21.94;44.86;99398.03;5008387;28;20040;-81
2022/07/15 11:01:50;;;;;;;6.15;1.38;;;;;;;21.77;45.27;99403.31;5018174;28;20057;-80
2022/07/15 11:04:17;;;;;;;2.15;1.02;;;;;;;21.73;45.22;99411.28;5022943;28;20496;-81
2022/07/15 11:07:07;;;;;;;4.40;1.60;;;;;;;21.42;46.32;99402.22;5021903;28;20111;-80
2022/07/15 11:09:50;;;;;;;4.35;1.17;;;;;;;21.46;45.89;99393.16;5022448;28;20044;-80
2022/07/15 11:12:22;;;;;;;7.68;2.05;;;;;;;21.33;45.88;99402.16;5021448;28;20075;-80
2022/07/15 11:14:53;;;;;;;4.45;1.25;;;;;;;21.30;46.09;99393.78;5023023;28;20071;-81
2022/07/15 11:17:40;;;;;;;4.05;1.10;;;;;;;21.17;46.36;99409.00;5005530;28;20048;-80
2022/07/15 11:20:12;;;;;;;5.38;1.73;;;;;;;21.35;46.23;99401.81;5011938;28;20548;-81
2022/07/15 11:22:43;;;;;;;3.30;1.23;;;;;;;21.13;46.12;99375.41;5021101;28;20040;-81
2022/07/15 11:25:33;;;;;;;2.85;1.05;;;;;;;21.28;46.12;99391.38;5006730;28;20092;-81
2022/07/15 11:28:06;;;;;;;5.75;1.50;;;;;;;21.24;46.33;99401.25;5023376;28;20074;-81
2022/07/15 11:30:38;;;;;;;3.30;1.25;;;;;;;21.28;46.27;99380.53;5022669;28;20122;-80
2022/07/15 11:33:07;;;;;;;4.63;1.10;;;;;;;21.18;45.57;99385.38;5023973;28;20388;-80
2022/07/15 11:35:50;;;;;;;3.35;1.13;;;;;;;21.08;46.16;99382.88;5025150;28;20029;-81
2022/07/15 11:38:18;;;;;;;3.05;1.00;;;;;;;20.79;46.07;99394.03;5022150;28;20029;-80
2022/07/15 11:46:19;;;;;;;5.80;1.50;;;;;;;22.05;44.53;99383.06;5018926;28;20107;-80
2022/07/15 11:48:44;;;;;;;3.50;1.23;;;;;;;21.67;44.61;99377.16;5018704;28;20926;-80